Pagrindinis puslapis
METAR-TAF:

METAR-TAF

Oro uostai :

Piarko tarptautinis oro uostas

Port of Speinas, Trinidadas, Trinidadas ir Tobagas

platuma: 10-37N, ilguma: 061-21W, Aukštis: 12 m

Dabartinis oras

Ataskaita buvo paskelbta 49 minutes, ne 01:00 UTC
Vėjas 6 kt iš Rytų/Pietryčių
Temperatūra 26°C
Drėgmė 79%
Slėgis 1013 hPa
Matomumas 10 km arba daugiau
Mažai debesys ne aukštis 1800 ft

METAR: TTPP 090100Z 11006KT 9999 FEW018 26/22 Q1013 NOSIG

Laikas: 21:49 (01:49 UTC)

Prognozė

Ataskaita buvo paskelbta 3 valandos ir 49 minutes, ne 22:00 UTC
Prognozė galioja nuo 09 metu 00 UTC su 09 metu 24 UTC
Vėjas 5 kt iš Rytų
Matomumas 10 km arba daugiau
Mažai debesys ne aukštis 1800 ft
Tapsmas
nuo 09 metu 12 UTC su 09 metu 14 UTC
Vėjas 15 kt iš Rytų/Pietryčių

TAF: TTPP 082200Z 0900/0924 09005KT 9999 FEW018 BECMG 0912/0914 12015KT

Orai ataskaitas ir orų prognozės (METAR, TAF).

turimą stotys yra geltonos ir raudonos taškus žemėlapyje.

Perkelti pele per norėdami pamatyti stoties vardą.

Tada spustelėkite, norėdami matyti oro stebėjimo ir prognozės.

Norėdami pakeisti žemėlapį: spustelėkite ant žalios mygtukų su juodo kryžiaus žemyn,; žalią mygtuką su brūkšneliu, jei norite nutolinti; arba žalių rodyklių gretimoms žemėlapius.


METAR-TAF: